Time;durP1;ratioP1;P1;durP2;ratioP2;P2;SDS_P1;SDS_P2;PMS_P1;PMS_P2;Temp;Humidity;BMP_temperature;BMP_pressure;BME280_temperature;BME280_humidity;BME280_pressure;Samples;Min_cycle;Max_cycle;Signal;HPM_P1;HPM_P2
2023/10/11 00:04:31;;;;;;;21.60;14.20;;;;;;;9.06;100.00;99401.17;272176;1270;22994;-85
2023/10/11 00:10:42;;;;;;;24.00;14.20;;;;;;;9.01;100.00;99397.70;272454;1272;22363;-82
2023/10/11 00:17:04;;;;;;;22.90;14.00;;;;;;;8.96;100.00;99392.81;273234;1272;22152;-82
2023/10/11 00:23:06;;;;;;;22.20;14.10;;;;;;;8.83;100.00;99386.44;269557;1272;22563;-83
2023/10/11 00:29:09;;;;;;;20.00;11.50;;;;;;;8.75;100.00;99382.81;270620;1271;22557;-83
2023/10/11 00:35:18;;;;;;;19.60;11.60;;;;;;;8.68;100.00;99380.59;269912;1271;23365;-82
2023/10/11 00:41:20;;;;;;;20.00;11.80;;;;;;;8.61;100.00;99375.34;270231;1272;22665;-82
2023/10/11 00:47:22;;;;;;;20.50;12.60;;;;;;;8.57;100.00;99371.43;270993;1271;23792;-82
2023/10/11 00:53:26;;;;;;;21.60;13.40;;;;;;;8.52;100.00;99358.29;271029;1271;22202;-82
2023/10/11 00:59:31;;;;;;;21.40;14.10;;;;;;;8.47;100.00;99350.45;272401;1272;23507;-82
2023/10/11 01:05:43;;;;;;;24.30;15.20;;;;;;;8.44;100.00;99347.16;269869;1272;22539;-82
2023/10/11 01:11:55;;;;;;;21.10;13.20;;;;;;;8.44;100.00;99337.05;269224;1271;22548;-82
2023/10/11 01:17:57;;;;;;;26.50;15.00;;;;;;;8.45;100.00;99331.86;269793;1272;22639;-83
2023/10/11 01:23:59;;;;;;;23.50;13.90;;;;;;;8.49;100.00;99331.71;269590;1272;22546;-84
2023/10/11 01:30:09;;;;;;;23.00;13.80;;;;;;;8.49;100.00;99337.41;271234;1272;22459;-82
2023/10/11 01:36:22;;;;;;;22.00;14.10;;;;;;;8.54;100.00;99340.09;272379;1272;23031;-84
2023/10/11 01:42:42;;;;;;;23.20;14.30;;;;;;;8.60;100.00;99332.44;272606;1272;23454;-82
2023/10/11 01:48:44;;;;;;;22.70;13.70;;;;;;;8.68;100.00;99328.98;272910;1272;22210;-82
2023/10/11 01:55:10;;;;;;;21.10;13.10;;;;;;;8.77;100.00;99333.16;272786;1272;22239;-83
2023/10/11 02:01:22;;;;;;;24.40;14.30;;;;;;;8.84;100.00;99337.23;272834;1270;22982;-82
2023/10/11 02:07:24;;;;;;;20.40;13.10;;;;;;;8.91;100.00;99334.44;271008;1268;23419;-82
2023/10/11 02:13:30;;;;;;;22.80;14.30;;;;;;;8.98;100.00;99329.59;272261;1267;22393;-82
2023/10/11 02:19:32;;;;;;;23.70;14.30;;;;;;;9.05;100.00;99321.95;272656;1270;22314;-82
2023/10/11 02:25:34;;;;;;;21.20;14.30;;;;;;;9.12;100.00;99318.38;271366;1271;22225;-82
2023/10/11 02:31:38;;;;;;;18.20;13.40;;;;;;;9.17;100.00;99315.29;270855;1272;23630;-82
2023/10/11 02:37:45;;;;;;;20.10;13.10;;;;;;;9.26;100.00;99317.82;270343;1271;22591;-83
2023/10/11 02:43:49;;;;;;;23.20;14.00;;;;;;;9.33;100.00;99318.35;271915;1270;22554;-82
2023/10/11 02:49:53;;;;;;;18.90;13.40;;;;;;;9.38;100.00;99310.33;272618;1272;22316;-82
2023/10/11 02:55:58;;;;;;;25.60;14.40;;;;;;;9.41;100.00;99303.39;272772;1272;22321;-84
2023/10/11 03:02:00;;;;;;;21.80;14.40;;;;;;;9.47;100.00;99305.98;272732;1272;23718;-82
2023/10/11 03:08:19;;;;;;;20.30;14.00;;;;;;;9.52;100.00;99296.96;272561;1270;23108;-82
2023/10/11 03:14:21;;;;;;;20.20;14.10;;;;;;;9.58;100.00;99302.08;272767;1269;23301;-82
2023/10/11 03:20:28;;;;;;;18.50;12.60;;;;;;;9.62;100.00;99295.59;272737;1272;22346;-82
2023/10/11 03:32:33;;;;;;;18.30;12.10;;;;;;;9.69;100.00;99278.39;270549;1272;22672;-82
2023/10/11 03:38:35;;;;;;;18.20;11.60;;;;;;;9.76;100.00;99273.36;271327;1272;22604;-83
2023/10/11 03:44:40;;;;;;;20.30;12.60;;;;;;;9.78;100.00;99267.08;272050;1272;22192;-83
2023/10/11 03:50:47;;;;;;;20.80;13.30;;;;;;;9.78;100.00;99268.02;272471;1272;189290;-82
2023/10/11 03:56:56;;;;;;;25.90;13.80;;;;;;;9.83;100.00;99264.52;273153;1271;22381;-82
2023/10/11 04:02:58;;;;;;;24.50;13.50;;;;;;;9.89;100.00;99263.53;272802;1270;23585;-83
2023/10/11 04:09:04;;;;;;;22.40;12.60;;;;;;;9.96;100.00;99257.95;271865;1271;23418;-81
2023/10/11 04:15:24;;;;;;;18.90;12.80;;;;;;;10.01;100.00;99244.38;270244;1264;23133;-83
2023/10/11 04:21:54;;;;;;;22.90;12.50;;;;;;;10.09;100.00;99239.91;271094;1272;22323;-82
2023/10/11 04:28:05;;;;;;;20.50;12.10;;;;;;;10.12;100.00;99243.27;272702;1272;22293;-82
2023/10/11 04:34:11;;;;;;;22.00;14.70;;;;;;;10.14;100.00;99243.60;272319;1271;22179;-83
2023/10/11 04:40:23;;;;;;;32.60;18.40;;;;;;;10.18;100.00;99243.05;272313;1270;22590;-82
2023/10/11 04:46:37;;;;;;;27.70;18.10;;;;;;;10.22;100.00;99244.51;270309;1272;22568;-83
2023/10/11 04:52:39;;;;;;;23.50;16.40;;;;;;;10.23;100.00;99247.20;270034;1271;22600;-83
2023/10/11 04:58:49;;;;;;;31.60;19.10;;;;;;;10.24;100.00;99247.30;271837;1272;22298;-82
2023/10/11 05:04:53;;;;;;;54.10;26.10;;;;;;;10.27;100.00;99251.94;272652;1272;22409;-82
2023/10/11 05:11:02;;;;;;;37.10;20.90;;;;;;;10.31;100.00;99248.10;272651;1272;22482;-82
2023/10/11 05:17:33;;;;;;;33.90;20.00;;;;;;;10.32;100.00;99240.07;272395;1272;23839;-83
2023/10/11 05:24:13;;;;;;;45.30;24.90;;;;;;;10.39;100.00;99243.14;272800;1271;22327;-83
2023/10/11 05:30:32;;;;;;;41.40;22.20;;;;;;;10.44;100.00;99235.10;273026;1272;23421;-83
2023/10/11 05:50:50;;;;;;;32.20;18.50;;;;;;;10.49;100.00;99236.58;272759;1272;22334;-83
2023/10/11 05:56:03;;;;;;;25.60;16.00;;;;;;;10.68;100.00;99235.30;273661;1272;22216;-83
2023/10/11 06:02:13;;;;;;;33.90;17.20;;;;;;;10.74;100.00;99231.55;272745;1272;22192;-83
2023/10/11 06:08:18;;;;;;;35.00;15.70;;;;;;;10.83;100.00;99230.66;272514;1272;22218;-83
2023/10/11 06:14:20;;;;;;;29.40;15.60;;;;;;;10.94;100.00;99228.47;270814;1272;25353;-83
2023/10/11 06:20:27;;;;;;;27.30;14.40;;;;;;;11.06;100.00;99225.65;270572;1272;22408;-83
2023/10/11 06:26:29;;;;;;;24.10;15.00;;;;;;;11.18;100.00;99231.50;270023;1272;22573;-82
2023/10/11 06:32:32;;;;;;;31.30;16.50;;;;;;;11.30;100.00;99231.65;270480;1272;22252;-82
2023/10/11 06:38:41;;;;;;;39.70;17.00;;;;;;;11.43;100.00;99233.38;270373;1270;23323;-82
2023/10/11 06:44:47;;;;;;;52.60;21.90;;;;;;;11.56;100.00;99230.47;270046;1269;22612;-83
2023/10/11 06:50:52;;;;;;;43.80;19.00;;;;;;;11.70;100.00;99235.17;270230;1272;22512;-83
2023/10/11 06:56:55;;;;;;;38.70;17.40;;;;;;;11.89;100.00;99240.02;270529;1269;22396;-83
2023/10/11 07:09:29;;;;;;;47.10;19.00;;;;;;;12.35;100.00;99248.73;272328;1272;22333;-83
2023/10/11 07:16:06;;;;;;;34.60;16.00;;;;;;;12.56;100.00;99246.54;272566;1272;22160;-83
2023/10/11 07:22:14;;;;;;;39.50;18.20;;;;;;;12.73;100.00;99245.95;272589;1271;22202;-83
2023/10/11 07:28:35;;;;;;;34.40;16.50;;;;;;;13.03;100.00;99243.70;273314;1279;22280;-83
2023/10/11 07:34:40;;;;;;;30.00;14.80;;;;;;;13.53;100.00;99245.24;273156;1272;22182;-83
2023/10/11 07:40:52;;;;;;;25.60;12.10;;;;;;;14.08;100.00;99239.08;273054;1272;22262;-83
2023/10/11 07:46:55;;;;;;;26.70;13.00;;;;;;;14.69;100.00;99234.84;272584;1272;22317;-84
2023/10/11 07:52:59;;;;;;;26.00;10.90;;;;;;;15.27;100.00;99230.36;272572;1267;22184;-84
2023/10/11 07:59:08;;;;;;;23.00;9.50;;;;;;;15.76;100.00;99231.31;272699;1272;22274;-84
2023/10/11 08:05:14;;;;;;;14.60;8.30;;;;;;;16.14;100.00;99233.02;272052;1270;23278;-84
2023/10/11 08:11:19;;;;;;;14.40;8.10;;;;;;;16.60;100.00;99234.73;271290;1264;22346;-84
2023/10/11 08:17:21;;;;;;;22.50;8.50;;;;;;;16.96;100.00;99234.45;272024;1272;22322;-84
2023/10/11 08:23:28;;;;;;;17.30;9.40;;;;;;;17.33;100.00;99223.98;271938;1271;23493;-84
2023/10/11 08:29:30;;;;;;;24.30;11.00;;;;;;;17.94;100.00;99215.89;271519;1270;22289;-84
2023/10/11 08:35:32;;;;;;;17.80;11.00;;;;;;;18.53;100.00;99219.30;271709;1272;22533;-84
2023/10/11 08:41:35;;;;;;;17.00;8.30;;;;;;;19.07;100.00;99219.99;272397;1267;22956;-84
2023/10/11 08:47:38;;;;;;;22.20;8.00;;;;;;;19.92;100.00;99222.81;271925;1270;22587;-84
2023/10/11 08:53:47;;;;;;;13.90;7.20;;;;;;;20.91;100.00;99225.05;272424;1272;22552;-84
2023/10/11 08:59:56;;;;;;;19.80;5.90;;;;;;;21.91;100.00;99217.73;272475;1272;22994;-84
2023/10/11 09:05:58;;;;;;;17.90;6.50;;;;;;;22.79;100.00;99220.17;272083;1270;22566;-84
2023/10/11 09:12:23;;;;;;;15.80;6.30;;;;;;;23.54;100.00;99216.38;271987;1270;22615;-85
2023/10/11 09:18:25;;;;;;;17.10;6.30;;;;;;;24.17;100.00;99213.73;271943;1263;22500;-84
2023/10/11 09:24:38;;;;;;;11.60;4.60;;;;;;;24.62;100.00;99212.39;271330;1270;22544;-85
2023/10/11 09:30:44;;;;;;;10.50;4.20;;;;;;;24.95;99.33;99212.19;271824;1272;23264;-85
2023/10/11 09:36:51;;;;;;;8.60;4.60;;;;;;;25.21;97.57;99221.17;271417;1270;22231;-86
2023/10/11 09:42:56;;;;;;;;;;;;;;;25.38;93.98;99223.92;271386;1270;22493;-84
2023/10/11 09:49:03;;;;;;;6.30;4.00;;;;;;;25.45;90.62;99224.44;271365;1272;22621;-85
2023/10/11 09:55:17;;;;;;;11.80;4.60;;;;;;;25.47;87.76;99228.73;271128;1272;22583;-84
2023/10/11 10:01:38;;;;;;;10.70;4.50;;;;;;;25.84;85.66;99226.04;271751;1270;22565;-83
2023/10/11 10:07:44;;;;;;;13.30;5.10;;;;;;;26.06;83.18;99222.31;272578;1272;23783;-83
2023/10/11 10:14:01;;;;;;;11.60;4.70;;;;;;;26.09;80.95;99215.45;272330;1272;23190;-82
2023/10/11 10:20:42;;;;;;;12.90;4.50;;;;;;;26.20;78.94;99214.20;271913;1272;22346;-82
2023/10/11 10:26:45;;;;;;;18.30;5.20;;;;;;;26.16;76.71;99210.92;272456;1272;22953;-82
2023/10/11 10:33:18;;;;;;;9.90;5.00;;;;;;;25.79;74.39;99201.23;272921;1271;22213;-83
2023/10/11 10:45:26;;;;;;;10.90;4.70;;;;;;;25.00;72.50;99181.63;271314;1270;22227;-85
2023/10/11 10:51:41;;;;;;;9.50;4.70;;;;;;;24.87;71.71;99173.27;271491;1272;22324;-83
2023/10/11 10:57:49;;;;;;;12.80;5.10;;;;;;;24.70;70.90;99163.35;272089;1271;22545;-83
2023/10/11 11:04:07;;;;;;;;;;;;;;;24.60;70.14;99157.45;270921;1267;22533;-83
2023/10/11 11:10:17;;;;;;;11.40;4.30;;;;;;;24.45;69.47;99151.52;271952;1270;23441;-82
2023/10/11 11:16:59;;;;;;;11.90;4.40;;;;;;;24.23;68.41;99150.55;272848;1267;23176;-83
2023/10/11 11:23:04;;;;;;;9.20;4.20;;;;;;;23.98;67.46;99148.95;272676;1270;22308;-83
2023/10/11 11:29:16;;;;;;;13.40;5.40;;;;;;;23.79;67.30;99150.88;272824;1271;22069;-82
2023/10/11 11:35:32;;;;;;;10.90;4.30;;;;;;;23.62;67.18;99145.17;272100;1271;22548;-84
2023/10/11 11:41:35;;;;;;;10.30;4.20;;;;;;;23.48;66.71;99144.77;272465;1271;22364;-83
2023/10/11 11:47:37;;;;;;;10.00;4.20;;;;;;;23.23;66.63;99143.80;272290;1272;22293;-82
2023/10/11 11:53:45;;;;;;;14.00;4.30;;;;;;;22.93;66.94;99138.10;271346;1270;24124;-83
2023/10/11 11:59:47;;;;;;;17.90;4.80;;;;;;;22.71;67.11;99138.44;271425;1271;22320;-83
2023/10/11 12:05:52;;;;;;;14.20;4.70;;;;;;;22.58;67.54;99139.45;272939;1267;22559;-83
2023/10/11 12:11:54;;;;;;;10.60;3.80;;;;;;;22.57;67.64;99138.55;272197;1272;22438;-84
2023/10/11 12:17:56;;;;;;;11.60;3.60;;;;;;;22.56;67.40;99131.95;270581;1271;22488;-85
2023/10/11 12:24:01;;;;;;;10.80;3.70;;;;;;;22.47;67.27;99131.84;269798;1270;22591;-84
2023/10/11 12:30:09;;;;;;;9.40;3.90;;;;;;;22.41;67.01;99141.36;270310;1257;22594;-83
2023/10/11 12:36:11;;;;;;;12.70;4.10;;;;;;;22.33;66.40;99137.97;271420;1271;22346;-84
2023/10/11 12:42:13;;;;;;;12.70;4.20;;;;;;;22.30;65.71;99134.73;272917;1272;23109;-83
2023/10/11 12:48:15;;;;;;;15.20;4.80;;;;;;;22.26;66.01;99123.81;271685;1270;22485;-83
2023/10/11 12:54:23;;;;;;;17.00;4.80;;;;;;;22.26;66.11;99119.60;272904;1270;22879;-83
2023/10/11 13:00:28;;;;;;;12.90;3.90;;;;;;;22.31;65.99;99114.06;273095;1270;22414;-84
2023/10/11 13:06:38;;;;;;;11.70;3.80;;;;;;;22.33;66.43;99111.52;271660;1271;22157;-83
2023/10/11 13:13:08;;;;;;;8.30;4.10;;;;;;;22.41;66.42;99105.83;272306;1271;23048;-85
2023/10/11 13:19:17;;;;;;;14.20;3.70;;;;;;;22.47;66.73;99105.14;271412;1272;23294;-84
2023/10/11 13:25:25;;;;;;;14.10;4.40;;;;;;;22.41;67.24;99102.97;272482;1272;22575;-84
2023/10/11 13:31:29;;;;;;;16.30;4.80;;;;;;;22.32;67.60;99099.77;272257;1265;22220;-83
2023/10/11 13:37:32;;;;;;;10.70;4.00;;;;;;;22.28;67.86;99093.30;272172;1264;22208;-83
2023/10/11 13:43:37;;;;;;;13.20;3.90;;;;;;;22.21;67.75;99089.80;273095;1271;23441;-83
2023/10/11 13:49:40;;;;;;;11.20;3.90;;;;;;;22.02;67.77;99083.17;271711;1272;22937;-83
2023/10/11 13:55:43;;;;;;;11.70;3.80;;;;;;;21.89;67.94;99087.70;271696;1270;24140;-83
2023/10/11 14:01:59;;;;;;;10.40;4.00;;;;;;;21.69;68.21;99090.13;271292;1261;22612;-83
2023/10/11 14:08:03;;;;;;;12.40;4.00;;;;;;;21.50;68.54;99070.13;272786;1272;22252;-83
2023/10/11 14:14:09;;;;;;;9.80;4.10;;;;;;;21.36;68.96;99072.39;272780;1271;23265;-83
2023/10/11 14:20:19;;;;;;;10.00;4.00;;;;;;;21.18;69.67;99077.10;271676;1271;22198;-82
2023/10/11 14:26:22;;;;;;;14.60;4.00;;;;;;;21.00;70.30;99078.60;272589;1263;22239;-84
2023/10/11 14:32:24;;;;;;;11.00;4.10;;;;;;;20.83;71.05;99076.45;272872;1272;22905;-82
2023/10/11 14:38:26;;;;;;;13.10;4.30;;;;;;;20.69;71.58;99075.18;272652;1272;22186;-82
2023/10/11 14:44:28;;;;;;;19.90;5.10;;;;;;;20.55;71.87;99082.03;271984;1267;22207;-83
2023/10/11 14:50:34;;;;;;;7.50;3.60;;;;;;;20.45;72.67;99084.45;272479;1272;23436;-83
2023/10/11 14:56:38;;;;;;;15.30;5.00;;;;;;;20.29;73.29;99087.17;271342;1272;23907;-83
2023/10/11 15:02:44;;;;;;;18.70;10.30;;;;;;;20.13;73.38;99082.33;271969;1272;23512;-82
2023/10/11 15:08:50;;;;;;;17.30;7.60;;;;;;;20.00;73.89;99085.66;271260;1272;22545;-83
2023/10/11 15:14:53;;;;;;;13.80;5.30;;;;;;;19.86;74.05;99089.66;271714;1264;22339;-83
2023/10/11 15:20:55;;;;;;;9.80;4.40;;;;;;;19.69;74.43;99087.56;272233;1272;22282;-82
2023/10/11 15:26:59;;;;;;;12.10;5.40;;;;;;;19.47;74.99;99086.90;271252;1268;22544;-82
2023/10/11 15:33:01;;;;;;;14.40;4.40;;;;;;;19.25;75.27;99094.59;271221;1272;22550;-83
2023/10/11 15:39:07;;;;;;;16.60;5.10;;;;;;;19.03;75.57;99100.39;270490;1258;23588;-83
2023/10/11 15:45:09;;;;;;;14.30;5.50;;;;;;;18.82;76.08;99102.17;272584;1272;22170;-82
2023/10/11 15:51:18;;;;;;;21.10;8.70;;;;;;;18.68;76.68;99111.00;272277;1272;156449;-83
2023/10/11 15:57:20;;;;;;;10.40;5.30;;;;;;;18.52;77.37;99109.25;271704;1271;24585;-82
2023/10/11 16:03:25;;;;;;;22.50;9.80;;;;;;;18.32;77.90;99106.75;271140;1264;22648;-83
2023/10/11 16:09:27;;;;;;;178.70;93.10;;;;;;;18.18;78.85;99104.46;271960;1271;22291;-83
2023/10/11 16:15:30;;;;;;;212.50;122.90;;;;;;;18.02;79.60;99101.10;271167;1268;22553;-83
2023/10/11 16:21:34;;;;;;;32.30;16.70;;;;;;;17.88;80.32;99103.15;270832;1272;24082;-82
2023/10/11 16:27:39;;;;;;;16.10;7.30;;;;;;;17.70;80.53;99106.30;270946;1272;22581;-82
2023/10/11 16:33:41;;;;;;;11.10;6.30;;;;;;;17.59;80.67;99102.13;263372;1272;10002155;-82
2023/10/11 16:39:44;;;;;;;17.80;7.10;;;;;;;17.59;81.55;99101.17;271865;1272;23094;-82
2023/10/11 16:45:47;;;;;;;15.30;6.40;;;;;;;17.59;81.62;99104.82;271190;1272;22541;-81
2023/10/11 16:51:48;;;;;;;15.20;5.50;;;;;;;17.73;80.92;99101.83;271204;1272;22555;-83
2023/10/11 16:57:52;;;;;;;14.00;5.20;;;;;;;17.78;80.92;99111.73;271633;1272;22346;-83
2023/10/11 17:03:56;;;;;;;15.80;5.40;;;;;;;17.69;81.16;99103.39;271633;1272;22555;-83
2023/10/11 17:09:58;;;;;;;12.80;4.80;;;;;;;17.60;81.48;99108.20;272160;1272;22263;-83
2023/10/11 17:16:02;;;;;;;13.50;5.20;;;;;;;17.50;81.68;99105.35;271052;1272;22402;-82
2023/10/11 17:22:06;;;;;;;14.40;5.80;;;;;;;17.54;81.65;99111.37;272818;1272;22440;-82
2023/10/11 17:28:08;;;;;;;13.60;5.80;;;;;;;17.57;81.34;99100.02;272482;1271;23524;-81
2023/10/11 17:34:15;;;;;;;10.10;4.90;;;;;;;17.79;80.75;99095.23;272307;1272;22241;-83
2023/10/11 17:40:17;;;;;;;14.40;5.90;;;;;;;17.90;80.39;99097.66;272596;1271;22436;-83
2023/10/11 17:46:21;;;;;;;11.50;4.90;;;;;;;17.89;80.09;99097.85;272718;1265;22564;-83
2023/10/11 17:52:24;;;;;;;15.50;5.50;;;;;;;17.97;79.99;99098.52;271675;1272;22228;-84
2023/10/11 17:58:27;;;;;;;12.60;5.90;;;;;;;17.79;79.87;99113.20;272654;1271;22275;-83
2023/10/11 18:04:29;;;;;;;12.50;5.40;;;;;;;17.56;79.96;99120.66;272918;1268;22227;-84
2023/10/11 18:10:32;;;;;;;14.60;6.30;;;;;;;17.36;80.48;99117.30;272512;1272;22319;-83
2023/10/11 18:16:35;;;;;;;14.50;5.30;;;;;;;17.20;80.77;99118.23;272978;1271;22201;-83
2023/10/11 18:22:41;;;;;;;18.30;6.20;;;;;;;16.97;81.05;99119.40;273017;1272;22302;-84
2023/10/11 18:28:43;;;;;;;17.60;7.00;;;;;;;16.74;81.72;99120.46;272936;1272;23467;-83
2023/10/11 18:34:50;;;;;;;14.30;6.60;;;;;;;16.54;82.81;99120.06;272762;1270;22223;-83
2023/10/11 18:40:55;;;;;;;;;;;;;;;16.40;83.32;99119.31;272871;1272;22441;-84
2023/10/11 18:46:59;;;;;;;17.30;6.80;;;;;;;16.22;84.33;99117.60;273156;1272;22206;-83
2023/10/11 18:53:01;;;;;;;15.50;6.60;;;;;;;16.04;85.26;99117.70;272726;1272;22721;-83
2023/10/11 18:59:03;;;;;;;15.10;7.20;;;;;;;15.77;85.20;99106.88;272708;1270;22394;-84
2023/10/11 19:05:09;;;;;;;24.70;8.00;;;;;;;15.60;85.66;99105.50;272779;1270;22186;-84
2023/10/11 19:11:12;;;;;;;14.70;7.10;;;;;;;15.58;86.03;99101.73;272714;1271;23076;-83
2023/10/11 19:17:14;;;;;;;16.90;6.20;;;;;;;15.69;86.71;99104.34;272721;1272;22243;-84
2023/10/11 19:23:17;;;;;;;13.80;6.20;;;;;;;15.71;86.77;99112.68;272680;1271;22564;-84
2023/10/11 19:29:19;;;;;;;17.10;6.30;;;;;;;15.64;87.19;99117.70;272247;1271;24197;-84
2023/10/11 19:35:21;;;;;;;15.10;6.70;;;;;;;15.54;88.07;99113.44;272371;1272;22318;-83
2023/10/11 19:41:23;;;;;;;15.60;5.70;;;;;;;15.41;88.22;99102.64;272462;1271;22406;-84
2023/10/11 19:47:24;;;;;;;18.00;5.50;;;;;;;15.47;88.15;99093.30;272707;1271;22332;-84
2023/10/11 19:53:27;;;;;;;16.70;6.40;;;;;;;15.57;88.37;99091.48;272854;1272;22206;-84
2023/10/11 19:59:34;;;;;;;15.00;6.20;;;;;;;15.70;88.47;99090.45;272641;1272;22597;-84
2023/10/11 20:05:38;;;;;;;19.00;6.10;;;;;;;15.75;88.51;99088.20;272598;1272;23356;-83
2023/10/11 20:11:41;;;;;;;11.10;5.40;;;;;;;15.72;88.66;99079.79;270618;1272;22350;-83
2023/10/11 20:17:49;;;;;;;16.70;6.20;;;;;;;15.68;89.51;99078.96;271871;1272;22251;-82
2023/10/11 20:23:55;;;;;;;15.30;5.70;;;;;;;15.62;89.75;99079.00;271976;1265;22538;-83
2023/10/11 20:29:57;;;;;;;13.40;5.30;;;;;;;15.55;89.95;99074.33;271500;1272;22406;-83
2023/10/11 20:35:59;;;;;;;11.40;5.70;;;;;;;15.53;90.15;99072.06;272759;1272;22583;-82
2023/10/11 20:42:06;;;;;;;15.60;5.70;;;;;;;15.48;90.12;99063.58;271074;1272;22323;-83
2023/10/11 20:48:08;;;;;;;12.30;5.60;;;;;;;15.38;90.02;99056.55;272685;1272;22409;-83
2023/10/11 20:54:13;;;;;;;11.90;5.30;;;;;;;15.25;90.30;99053.39;271928;1272;22297;-83
2023/10/11 21:00:16;;;;;;;9.50;5.30;;;;;;;15.15;90.37;99054.48;272635;1272;22786;-83
2023/10/11 21:06:19;;;;;;;11.80;5.50;;;;;;;15.05;90.79;99051.14;272690;1272;22696;-84
2023/10/11 21:12:23;;;;;;;13.30;6.20;;;;;;;14.94;91.11;99052.00;272858;1272;22314;-84
2023/10/11 21:18:25;;;;;;;13.40;5.80;;;;;;;14.81;91.71;99045.46;272932;1272;23372;-83
2023/10/11 21:24:27;;;;;;;13.50;6.40;;;;;;;14.68;91.98;99042.54;272194;1272;22537;-84
2023/10/11 21:30:30;;;;;;;14.20;5.80;;;;;;;14.64;92.32;99033.10;272634;1272;22509;-83
2023/10/11 21:36:32;;;;;;;15.50;6.10;;;;;;;14.59;92.48;99022.89;271828;1272;22397;-83
2023/10/11 21:42:36;;;;;;;17.30;6.50;;;;;;;14.47;92.77;99022.01;272744;1272;22623;-82
2023/10/11 21:48:40;;;;;;;11.60;5.90;;;;;;;14.44;93.49;99013.60;272334;1272;22324;-83
2023/10/11 21:54:42;;;;;;;14.00;5.50;;;;;;;14.43;94.03;99005.49;272986;1272;23410;-83
2023/10/11 22:00:52;;;;;;;12.30;5.60;;;;;;;14.42;94.40;99002.75;272883;1272;23237;-83
2023/10/11 22:07:00;;;;;;;12.30;4.90;;;;;;;14.38;94.83;98995.99;272919;1272;22317;-83
2023/10/11 22:13:03;;;;;;;16.10;5.30;;;;;;;14.27;94.86;98985.73;272733;1271;22993;-83
2023/10/11 22:19:15;;;;;;;21.50;6.10;;;;;;;14.17;95.05;98976.77;271660;1265;23851;-83
2023/10/11 22:25:21;;;;;;;13.50;5.10;;;;;;;14.09;95.46;98978.99;271741;1272;22374;-83
2023/10/11 22:31:23;;;;;;;12.30;5.00;;;;;;;14.08;96.06;98987.48;270538;1263;23024;-82
2023/10/11 22:37:30;;;;;;;11.10;5.50;;;;;;;14.18;96.70;98986.36;270670;1271;23053;-82
2023/10/11 22:43:36;;;;;;;15.20;5.40;;;;;;;14.26;96.75;98988.26;271095;1272;22525;-82
2023/10/11 22:49:38;;;;;;;14.90;6.00;;;;;;;14.27;96.72;98988.81;269682;1266;22562;-83
2023/10/11 22:55:41;;;;;;;14.00;5.20;;;;;;;14.22;96.96;98987.05;269833;1272;23794;-83
2023/10/11 23:01:46;;;;;;;14.40;4.90;;;;;;;14.10;97.08;98992.20;269953;1266;22586;-83
2023/10/11 23:07:52;;;;;;;12.30;5.10;;;;;;;14.00;97.17;98989.48;270003;1272;22924;-83
2023/10/11 23:13:56;;;;;;;14.20;6.30;;;;;;;13.94;97.46;98985.89;272860;1272;22963;-83
2023/10/11 23:20:05;;;;;;;21.00;7.30;;;;;;;13.93;98.09;98985.17;272152;1270;22615;-83
2023/10/11 23:26:07;;;;;;;17.10;6.00;;;;;;;14.05;98.35;98977.83;271678;1272;22847;-83
2023/10/11 23:32:09;;;;;;;12.00;5.20;;;;;;;14.25;98.46;98972.28;270249;1272;22506;-83
2023/10/11 23:38:26;;;;;;;14.80;5.70;;;;;;;14.30;98.48;98973.69;273209;1272;22276;-84
2023/10/11 23:44:29;;;;;;;16.90;6.10;;;;;;;14.25;98.30;98971.57;272968;1272;22203;-83
2023/10/11 23:50:37;;;;;;;17.40;5.70;;;;;;;14.18;98.32;98970.23;271158;1266;23086;-83
2023/10/11 23:56:48;;;;;;;13.00;5.70;;;;;;;14.06;98.48;98973.11;272983;1272;22285;-83
